sensor_id;sensor_type;location;lat;lon;timestamp;pressure;altitude;pressure_sealevel;temperature;humidity
71795;BME280;59641;45.188;5.712;2022-12-05T00:00:05;99259.06;;;9.41;67.08
71795;BME280;59641;45.188;5.712;2022-12-05T00:02:30;99259.06;;;9.41;67.17
71795;BME280;59641;45.188;5.712;2022-12-05T00:04:56;99257.19;;;9.41;67.01
71795;BME280;59641;45.188;5.712;2022-12-05T00:07:21;99255.34;;;9.42;66.47
71795;BME280;59641;45.188;5.712;2022-12-05T00:09:46;99261.75;;;9.41;66.77
71795;BME280;59641;45.188;5.712;2022-12-05T00:12:11;99259.28;;;9.39;66.73
71795;BME280;59641;45.188;5.712;2022-12-05T00:14:37;99261.94;;;9.39;66.80
71795;BME280;59641;45.188;5.712;2022-12-05T00:17:02;99270.78;;;9.39;66.44
71795;BME280;59641;45.188;5.712;2022-12-05T00:19:28;99264.63;;;9.39;66.76
71795;BME280;59641;45.188;5.712;2022-12-05T00:21:53;99270.19;;;9.37;66.43
71795;BME280;59641;45.188;5.712;2022-12-05T00:24:18;99266.09;;;9.35;66.58
71795;BME280;59641;45.188;5.712;2022-12-05T00:26:44;99271.44;;;9.35;66.57
71795;BME280;59641;45.188;5.712;2022-12-05T00:29:10;99269.00;;;9.33;66.88
71795;BME280;59641;45.188;5.712;2022-12-05T00:31:36;99277.84;;;9.34;66.90
71795;BME280;59641;45.188;5.712;2022-12-05T00:34:02;99273.31;;;9.34;67.11
71795;BME280;59641;45.188;5.712;2022-12-05T00:36:29;99279.47;;;9.35;67.31
71795;BME280;59641;45.188;5.712;2022-12-05T00:38:58;99278.44;;;9.36;67.14
71795;BME280;59641;45.188;5.712;2022-12-05T00:41:25;99280.09;;;9.37;67.29
71795;BME280;59641;45.188;5.712;2022-12-05T00:43:52;99278.22;;;9.37;67.12
71795;BME280;59641;45.188;5.712;2022-12-05T00:46:20;99285.25;;;9.38;67.08
71795;BME280;59641;45.188;5.712;2022-12-05T00:48:46;99281.75;;;9.38;67.07
71795;BME280;59641;45.188;5.712;2022-12-05T00:51:21;99287.09;;;9.38;66.67
71795;BME280;59641;45.188;5.712;2022-12-05T00:53:47;99286.25;;;9.37;66.86
71795;BME280;59641;45.188;5.712;2022-12-05T00:56:15;99280.09;;;9.37;66.70
71795;BME280;59641;45.188;5.712;2022-12-05T00:58:41;99282.75;;;9.37;66.89
71795;BME280;59641;45.188;5.712;2022-12-05T01:03:36;99283.56;;;9.37;66.89
71795;BME280;59641;45.188;5.712;2022-12-05T01:06:02;99288.13;;;9.37;67.10
71795;BME280;59641;45.188;5.712;2022-12-05T01:08:30;99286.25;;;9.37;66.99
71795;BME280;59641;45.188;5.712;2022-12-05T01:10:56;99282.56;;;9.38;66.96
71795;BME280;59641;45.188;5.712;2022-12-05T01:13:23;99281.75;;;9.38;67.23
71795;BME280;59641;45.188;5.712;2022-12-05T01:15:49;99286.88;;;9.39;66.98
71795;BME280;59641;45.188;5.712;2022-12-05T01:18:14;99287.69;;;9.40;67.00
71795;BME280;59641;45.188;5.712;2022-12-05T01:20:40;99295.13;;;9.38;67.17
71795;BME280;59641;45.188;5.712;2022-12-05T01:23:06;99293.03;;;9.40;67.05
71795;BME280;59641;45.188;5.712;2022-12-05T01:25:31;99297.56;;;9.39;66.99
71795;BME280;59641;45.188;5.712;2022-12-05T01:27:57;99293.88;;;9.41;67.05
71795;BME280;59641;45.188;5.712;2022-12-05T01:30:22;99297.56;;;9.39;66.96
71795;BME280;59641;45.188;5.712;2022-12-05T01:32:47;99294.28;;;9.37;66.60
71795;BME280;59641;45.188;5.712;2022-12-05T01:35:13;99303.38;;;9.36;66.77
71795;BME280;59641;45.188;5.712;2022-12-05T01:37:39;99301.50;;;9.37;66.85
71795;BME280;59641;45.188;5.712;2022-12-05T01:40:05;99298.00;;;9.36;66.74
71795;BME280;59641;45.188;5.712;2022-12-05T01:42:32;99299.88;;;9.36;66.57
71795;BME280;59641;45.188;5.712;2022-12-05T01:45:09;99302.97;;;9.33;66.53
71795;BME280;59641;45.188;5.712;2022-12-05T01:47:37;99303.19;;;9.31;66.67
71795;BME280;59641;45.188;5.712;2022-12-05T01:50:04;99306.69;;;9.32;66.71
71795;BME280;59641;45.188;5.712;2022-12-05T01:52:30;99308.31;;;9.33;67.01
71795;BME280;59641;45.188;5.712;2022-12-05T01:55:02;99304.00;;;9.32;66.87
71795;BME280;59641;45.188;5.712;2022-12-05T01:57:29;99313.91;;;9.31;66.78
71795;BME280;59641;45.188;5.712;2022-12-05T01:59:58;99315.75;;;9.31;66.62
71795;BME280;59641;45.188;5.712;2022-12-05T02:02:26;99313.28;;;9.29;66.64
71795;BME280;59641;45.188;5.712;2022-12-05T02:05:06;99318.84;;;9.28;66.49
71795;BME280;59641;45.188;5.712;2022-12-05T02:07:32;99323.81;;;9.24;66.50
71795;BME280;59641;45.188;5.712;2022-12-05T02:09:58;99329.38;;;9.23;66.52
71795;BME280;59641;45.188;5.712;2022-12-05T02:12:24;99326.09;;;9.21;66.59
71795;BME280;59641;45.188;5.712;2022-12-05T02:14:59;99327.13;;;9.20;66.79
71795;BME280;59641;45.188;5.712;2022-12-05T02:30:44;99315.59;;;9.19;67.19
71795;BME280;59641;45.188;5.712;2022-12-05T02:33:51;99328.16;;;9.18;66.46
71795;BME280;59641;45.188;5.712;2022-12-05T02:36:42;99322.78;;;9.18;66.71
71795;BME280;59641;45.188;5.712;2022-12-05T02:42:11;99325.47;;;9.18;66.69
71795;BME280;59641;45.188;5.712;2022-12-05T02:44:53;99326.31;;;9.19;66.70
71795;BME280;59641;45.188;5.712;2022-12-05T02:47:22;99329.81;;;9.20;66.50
71795;BME280;59641;45.188;5.712;2022-12-05T02:49:50;99324.66;;;9.18;66.45
71795;BME280;59641;45.188;5.712;2022-12-05T02:52:17;99333.72;;;9.17;66.74
71795;BME280;59641;45.188;5.712;2022-12-05T02:54:45;99339.09;;;9.17;66.69
71795;BME280;59641;45.188;5.712;2022-12-05T02:57:13;99342.56;;;9.17;66.78
71795;BME280;59641;45.188;5.712;2022-12-05T02:59:39;99345.25;;;9.17;66.66
71795;BME280;59641;45.188;5.712;2022-12-05T03:02:07;99345.25;;;9.17;66.69
71795;BME280;59641;45.188;5.712;2022-12-05T03:04:32;99346.31;;;9.16;66.55
71795;BME280;59641;45.188;5.712;2022-12-05T03:07:09;99346.31;;;9.16;66.50
71795;BME280;59641;45.188;5.712;2022-12-05T03:09:39;99344.63;;;9.15;66.69
71795;BME280;59641;45.188;5.712;2022-12-05T03:12:13;99337.66;;;9.14;66.52
71795;BME280;59641;45.188;5.712;2022-12-05T03:14:47;99343.81;;;9.15;66.35
71795;BME280;59641;45.188;5.712;2022-12-05T03:17:22;99351.03;;;9.14;66.54
71795;BME280;59641;45.188;5.712;2022-12-05T03:20:12;99345.69;;;9.14;66.53
71795;BME280;59641;45.188;5.712;2022-12-05T03:22:54;99346.69;;;9.13;66.47
71795;BME280;59641;45.188;5.712;2022-12-05T03:25:27;99353.72;;;9.14;66.45
71795;BME280;59641;45.188;5.712;2022-12-05T03:28:08;99346.69;;;9.13;66.48
71795;BME280;59641;45.188;5.712;2022-12-05T03:30:37;99352.06;;;9.13;66.23
71795;BME280;59641;45.188;5.712;2022-12-05T03:33:28;99346.31;;;9.10;65.91
71795;BME280;59641;45.188;5.712;2022-12-05T03:36:08;99352.09;;;9.07;65.94
71795;BME280;59641;45.188;5.712;2022-12-05T03:38:46;99348.81;;;9.05;65.97
71795;BME280;59641;45.188;5.712;2022-12-05T03:41:26;99349.81;;;9.04;65.78
71795;BME280;59641;45.188;5.712;2022-12-05T03:44:02;99346.31;;;9.03;65.85
71795;BME280;59641;45.188;5.712;2022-12-05T03:46:39;99354.34;;;9.03;66.00
71795;BME280;59641;45.188;5.712;2022-12-05T03:49:10;99364.00;;;9.04;65.91
71795;BME280;59641;45.188;5.712;2022-12-05T03:51:42;99358.06;;;9.02;65.87
71795;BME280;59641;45.188;5.712;2022-12-05T03:54:21;99365.06;;;9.03;65.83
71795;BME280;59641;45.188;5.712;2022-12-05T03:57:14;99358.88;;;9.03;65.85
71795;BME280;59641;45.188;5.712;2022-12-05T03:59:42;99375.16;;;9.01;65.73
71795;BME280;59641;45.188;5.712;2022-12-05T04:02:21;99364.44;;;9.01;65.90
71795;BME280;59641;45.188;5.712;2022-12-05T04:04:55;99372.47;;;9.01;65.89
71795;BME280;59641;45.188;5.712;2022-12-05T04:07:23;99374.34;;;9.01;65.71
71795;BME280;59641;45.188;5.712;2022-12-05T04:09:54;99373.53;;;9.00;65.79
71795;BME280;59641;45.188;5.712;2022-12-05T04:12:25;99381.56;;;9.00;65.67
71795;BME280;59641;45.188;5.712;2022-12-05T04:15:02;99383.41;;;9.00;65.56
71795;BME280;59641;45.188;5.712;2022-12-05T04:20:28;99390.59;;;8.99;65.70
71795;BME280;59641;45.188;5.712;2022-12-05T04:23:15;99387.28;;;8.97;65.67
71795;BME280;59641;45.188;5.712;2022-12-05T04:26:02;99385.47;;;8.98;65.48
71795;BME280;59641;45.188;5.712;2022-12-05T04:28:33;99385.66;;;8.96;65.70
71795;BME280;59641;45.188;5.712;2022-12-05T04:31:10;99391.84;;;8.96;65.60
71795;BME280;59641;45.188;5.712;2022-12-05T04:33:56;99386.47;;;8.96;65.60
71795;BME280;59641;45.188;5.712;2022-12-05T04:36:42;99380.50;;;8.94;65.50
71795;BME280;59641;45.188;5.712;2022-12-05T04:39:20;99393.06;;;8.94;65.41
71795;BME280;59641;45.188;5.712;2022-12-05T04:41:52;99391.44;;;8.93;65.52
71795;BME280;59641;45.188;5.712;2022-12-05T04:44:23;99389.59;;;8.93;65.60
71795;BME280;59641;45.188;5.712;2022-12-05T04:46:51;99398.66;;;8.92;65.31
71795;BME280;59641;45.188;5.712;2022-12-05T04:49:22;99393.31;;;8.92;65.49
71795;BME280;59641;45.188;5.712;2022-12-05T04:51:51;99400.47;;;8.92;65.57
71795;BME280;59641;45.188;5.712;2022-12-05T04:54:45;99402.34;;;8.91;65.41
71795;BME280;59641;45.188;5.712;2022-12-05T05:00:16;99400.09;;;8.88;65.41
71795;BME280;59641;45.188;5.712;2022-12-05T05:02:47;99404.63;;;8.88;65.33
71795;BME280;59641;45.188;5.712;2022-12-05T05:05:17;99407.31;;;8.88;65.46
71795;BME280;59641;45.188;5.712;2022-12-05T05:07:46;99406.47;;;8.87;65.27
71795;BME280;59641;45.188;5.712;2022-12-05T05:10:15;99407.31;;;8.88;65.36
71795;BME280;59641;45.188;5.712;2022-12-05T05:12:43;99412.66;;;8.88;65.07
71795;BME280;59641;45.188;5.712;2022-12-05T05:15:09;99413.66;;;8.87;64.99
71795;BME280;59641;45.188;5.712;2022-12-05T05:17:34;99407.50;;;8.86;65.12
71795;BME280;59641;45.188;5.712;2022-12-05T05:20:00;99408.53;;;8.85;64.92
71795;BME280;59641;45.188;5.712;2022-12-05T05:22:47;99412.22;;;8.84;64.85
71795;BME280;59641;45.188;5.712;2022-12-05T05:25:12;99413.47;;;8.82;64.88
71795;BME280;59641;45.188;5.712;2022-12-05T05:27:38;99416.34;;;8.80;64.71
71795;BME280;59641;45.188;5.712;2022-12-05T05:30:03;99421.09;;;8.78;64.64
71795;BME280;59641;45.188;5.712;2022-12-05T05:32:31;99415.94;;;8.77;64.65
71795;BME280;59641;45.188;5.712;2022-12-05T05:34:57;99416.16;;;8.75;64.54
71795;BME280;59641;45.188;5.712;2022-12-05T05:37:22;99420.06;;;8.72;64.54
71795;BME280;59641;45.188;5.712;2022-12-05T05:39:47;99418.41;;;8.71;64.61
71795;BME280;59641;45.188;5.712;2022-12-05T05:42:13;99427.25;;;8.72;64.78
71795;BME280;59641;45.188;5.712;2022-12-05T05:44:38;99429.31;;;8.70;64.62
71795;BME280;59641;45.188;5.712;2022-12-05T05:47:03;99435.50;;;8.70;64.68
71795;BME280;59641;45.188;5.712;2022-12-05T05:49:28;99439.81;;;8.71;64.57
71795;BME280;59641;45.188;5.712;2022-12-05T05:51:54;99436.34;;;8.71;64.64
71795;BME280;59641;45.188;5.712;2022-12-05T05:54:19;99439.19;;;8.69;64.56
71795;BME280;59641;45.188;5.712;2022-12-05T05:56:44;99443.75;;;8.69;64.53
71795;BME280;59641;45.188;5.712;2022-12-05T05:59:10;99446.41;;;8.69;64.59
71795;BME280;59641;45.188;5.712;2022-12-05T06:01:35;99451.75;;;8.69;64.53
71795;BME280;59641;45.188;5.712;2022-12-05T06:04:00;99464.31;;;8.68;64.37
71795;BME280;59641;45.188;5.712;2022-12-05T06:06:26;99466.16;;;8.68;64.32
71795;BME280;59641;45.188;5.712;2022-12-05T06:08:51;99466.16;;;8.68;64.34
71795;BME280;59641;45.188;5.712;2022-12-05T06:11:20;99475.03;;;8.68;64.07
71795;BME280;59641;45.188;5.712;2022-12-05T06:13:46;99476.84;;;8.68;64.20
71795;BME280;59641;45.188;5.712;2022-12-05T06:16:13;99467.38;;;8.65;63.88
71795;BME280;59641;45.188;5.712;2022-12-05T06:18:39;99478.09;;;8.65;64.04
71795;BME280;59641;45.188;5.712;2022-12-05T06:21:05;99477.25;;;8.65;64.02
71795;BME280;59641;45.188;5.712;2022-12-05T06:23:34;99478.31;;;8.64;64.12
71795;BME280;59641;45.188;5.712;2022-12-05T06:26:00;99475.00;;;8.62;64.00
71795;BME280;59641;45.188;5.712;2022-12-05T06:28:26;99476.88;;;8.61;63.93
71795;BME280;59641;45.188;5.712;2022-12-05T06:30:51;99480.56;;;8.60;63.75
71795;BME280;59641;45.188;5.712;2022-12-05T06:33:17;99479.72;;;8.60;63.79
71795;BME280;59641;45.188;5.712;2022-12-05T06:35:43;99494.97;;;8.59;63.72
71795;BME280;59641;45.188;5.712;2022-12-05T06:38:09;99503.81;;;8.60;63.90
71795;BME280;59641;45.188;5.712;2022-12-05T06:40:39;99504.00;;;8.58;63.58
71795;BME280;59641;45.188;5.712;2022-12-05T06:43:05;99500.50;;;8.58;63.29
71795;BME280;59641;45.188;5.712;2022-12-05T06:45:30;99511.41;;;8.56;63.05
71795;BME280;59641;45.188;5.712;2022-12-05T06:47:55;99508.13;;;8.54;63.25
71795;BME280;59641;45.188;5.712;2022-12-05T06:50:20;99510.81;;;8.54;63.57
71795;BME280;59641;45.188;5.712;2022-12-05T06:52:46;99514.28;;;8.55;63.68
71795;BME280;59641;45.188;5.712;2022-12-05T06:55:11;99512.63;;;8.53;63.38
71795;BME280;59641;45.188;5.712;2022-12-05T06:57:36;99517.16;;;8.53;63.58
71795;BME280;59641;45.188;5.712;2022-12-05T07:00:03;99512.84;;;8.52;63.36
71795;BME280;59641;45.188;5.712;2022-12-05T07:02:50;99518.19;;;8.52;63.62
71795;BME280;59641;45.188;5.712;2022-12-05T07:05:16;99523.56;;;8.52;63.71
71795;BME280;59641;45.188;5.712;2022-12-05T07:07:41;99525.19;;;8.53;64.07
71795;BME280;59641;45.188;5.712;2022-12-05T07:10:06;99535.69;;;8.55;63.91
71795;BME280;59641;45.188;5.712;2022-12-05T07:12:32;99535.69;;;8.55;64.12
71795;BME280;59641;45.188;5.712;2022-12-05T07:14:58;99541.03;;;8.55;63.54
71795;BME280;59641;45.188;5.712;2022-12-05T07:17:23;99544.72;;;8.53;63.68
71795;BME280;59641;45.188;5.712;2022-12-05T07:19:50;99544.94;;;8.52;63.80
71795;BME280;59641;45.188;5.712;2022-12-05T07:22:21;99557.28;;;8.53;63.91
71795;BME280;59641;45.188;5.712;2022-12-05T07:24:47;99558.94;;;8.54;63.79
71795;BME280;59641;45.188;5.712;2022-12-05T07:27:13;99562.63;;;8.53;63.59
71795;BME280;59641;45.188;5.712;2022-12-05T07:29:39;99574.16;;;8.53;63.76
71795;BME280;59641;45.188;5.712;2022-12-05T07:32:04;99577.66;;;8.54;63.78
71795;BME280;59641;45.188;5.712;2022-12-05T07:34:30;99588.38;;;8.54;63.90
71795;BME280;59641;45.188;5.712;2022-12-05T07:36:55;99587.97;;;8.57;63.93
71795;BME280;59641;45.188;5.712;2022-12-05T07:39:21;99588.78;;;8.58;63.72
71795;BME280;59641;45.188;5.712;2022-12-05T07:41:46;99593.94;;;8.59;63.76
71795;BME280;59641;45.188;5.712;2022-12-05T07:44:12;99603.59;;;8.60;63.66
71795;BME280;59641;45.188;5.712;2022-12-05T07:46:38;99604.41;;;8.61;63.48
71795;BME280;59641;45.188;5.712;2022-12-05T07:49:04;99606.06;;;8.62;63.26
71795;BME280;59641;45.188;5.712;2022-12-05T07:51:29;99615.13;;;8.61;63.07
71795;BME280;59641;45.188;5.712;2022-12-05T07:53:55;99614.94;;;8.62;63.37
71795;BME280;59641;45.188;5.712;2022-12-05T07:56:20;99620.47;;;8.61;63.08
71795;BME280;59641;45.188;5.712;2022-12-05T07:58:48;99626.84;;;8.60;63.28
71795;BME280;59641;45.188;5.712;2022-12-05T08:01:18;99622.31;;;8.60;63.05
71795;BME280;59641;45.188;5.712;2022-12-05T08:03:44;99623.34;;;8.59;63.39
71795;BME280;59641;45.188;5.712;2022-12-05T08:06:12;99625.81;;;8.61;63.50
71795;BME280;59641;45.188;5.712;2022-12-05T08:08:38;99628.28;;;8.62;63.34
71795;BME280;59641;45.188;5.712;2022-12-05T08:11:12;99627.25;;;8.63;63.46
71795;BME280;59641;45.188;5.712;2022-12-05T08:13:38;99628.09;;;8.64;63.54
71795;BME280;59641;45.188;5.712;2022-12-05T08:16:17;99626.03;;;8.66;63.63
71795;BME280;59641;45.188;5.712;2022-12-05T08:18:44;99626.88;;;8.66;63.69
71795;BME280;59641;45.188;5.712;2022-12-05T08:21:12;99626.66;;;8.68;63.66
71795;BME280;59641;45.188;5.712;2022-12-05T08:23:38;99638.00;;;8.70;63.29
71795;BME280;59641;45.188;5.712;2022-12-05T08:26:07;99624.84;;;8.68;63.11
71795;BME280;59641;45.188;5.712;2022-12-05T08:28:33;99634.50;;;8.69;63.46
71795;BME280;59641;45.188;5.712;2022-12-05T08:31:05;99645.19;;;8.69;63.27
71795;BME280;59641;45.188;5.712;2022-12-05T08:33:31;99651.19;;;8.71;63.38
71795;BME280;59641;45.188;5.712;2022-12-05T08:35:59;99653.84;;;8.71;63.35
71795;BME280;59641;45.188;5.712;2022-12-05T08:38:24;99650.13;;;8.72;63.22
71795;BME280;59641;45.188;5.712;2022-12-05T08:40:50;99657.97;;;8.74;63.41
71795;BME280;59641;45.188;5.712;2022-12-05T08:43:15;99658.78;;;8.74;63.31
71795;BME280;59641;45.188;5.712;2022-12-05T08:45:40;99657.78;;;8.76;63.47
71795;BME280;59641;45.188;5.712;2022-12-05T08:48:12;99659.22;;;8.78;63.25
71795;BME280;59641;45.188;5.712;2022-12-05T08:50:38;99664.78;;;8.77;63.34
71795;BME280;59641;45.188;5.712;2022-12-05T08:53:03;99668.50;;;8.76;63.22
71795;BME280;59641;45.188;5.712;2022-12-05T08:55:28;99670.13;;;8.77;63.34
71795;BME280;59641;45.188;5.712;2022-12-05T08:57:54;99672.63;;;8.78;63.19
71795;BME280;59641;45.188;5.712;2022-12-05T09:00:19;99672.63;;;8.78;63.16
71795;BME280;59641;45.188;5.712;2022-12-05T09:02:49;99671.56;;;8.79;63.20
71795;BME280;59641;45.188;5.712;2022-12-05T09:05:16;99678.56;;;8.80;63.22
71795;BME280;59641;45.188;5.712;2022-12-05T09:07:41;99674.88;;;8.81;63.18
71795;BME280;59641;45.188;5.712;2022-12-05T09:10:07;99684.53;;;8.82;63.22
71795;BME280;59641;45.188;5.712;2022-12-05T09:12:35;99690.53;;;8.84;63.21
71795;BME280;59641;45.188;5.712;2022-12-05T09:15:01;99697.53;;;8.85;63.03
71795;BME280;59641;45.188;5.712;2022-12-05T09:17:26;99696.50;;;8.86;62.92
71795;BME280;59641;45.188;5.712;2022-12-05T09:19:51;99699.00;;;8.88;62.87
71795;BME280;59641;45.188;5.712;2022-12-05T09:22:17;99703.31;;;8.89;62.67
71795;BME280;59641;45.188;5.712;2022-12-05T09:24:42;99703.13;;;8.90;62.82
71795;BME280;59641;45.188;5.712;2022-12-05T09:27:08;99694.03;;;8.91;62.82
71795;BME280;59641;45.188;5.712;2022-12-05T09:29:33;99692.19;;;8.92;62.78
71795;BME280;59641;45.188;5.712;2022-12-05T09:31:58;99689.31;;;8.93;62.91
71795;BME280;59641;45.188;5.712;2022-12-05T09:34:24;99699.63;;;8.96;62.68
71795;BME280;59641;45.188;5.712;2022-12-05T09:36:50;99696.13;;;8.96;62.44
71795;BME280;59641;45.188;5.712;2022-12-05T09:39:16;99696.13;;;8.96;62.52
71795;BME280;59641;45.188;5.712;2022-12-05T09:47:10;99692.03;;;9.00;62.55
71795;BME280;59641;45.188;5.712;2022-12-05T09:49:53;99691.00;;;9.01;62.53
71795;BME280;59641;45.188;5.712;2022-12-05T09:52:28;99696.97;;;9.03;62.69
71795;BME280;59641;45.188;5.712;2022-12-05T09:55:10;99698.59;;;9.04;62.69
71795;BME280;59641;45.188;5.712;2022-12-05T09:57:41;99696.56;;;9.06;62.58
71795;BME280;59641;45.188;5.712;2022-12-05T10:00:09;99688.34;;;9.08;62.45
71795;BME280;59641;45.188;5.712;2022-12-05T10:05:33;99688.97;;;9.10;63.08
71795;BME280;59641;45.188;5.712;2022-12-05T10:10:53;99681.94;;;9.09;62.70
71795;BME280;59641;45.188;5.712;2022-12-05T10:13:34;99677.63;;;9.08;62.83
71795;BME280;59641;45.188;5.712;2022-12-05T10:16:10;99673.91;;;9.09;62.76
71795;BME280;59641;45.188;5.712;2022-12-05T10:18:47;99661.16;;;9.11;62.76
71795;BME280;59641;45.188;5.712;2022-12-05T10:21:23;99662.81;;;9.12;62.79
71795;BME280;59641;45.188;5.712;2022-12-05T10:23:56;99659.09;;;9.13;63.08
71795;BME280;59641;45.188;5.712;2022-12-05T10:26:25;99665.09;;;9.15;62.98
71795;BME280;59641;45.188;5.712;2022-12-05T10:31:47;99660.34;;;9.17;62.49
71795;BME280;59641;45.188;5.712;2022-12-05T10:34:32;99656.84;;;9.16;62.64
71795;BME280;59641;45.188;5.712;2022-12-05T10:37:10;99649.03;;;9.15;62.38
71795;BME280;59641;45.188;5.712;2022-12-05T10:39:38;99656.03;;;9.09;61.91
71795;BME280;59641;45.188;5.712;2022-12-05T10:42:06;99647.56;;;9.06;62.35
71795;BME280;59641;45.188;5.712;2022-12-05T10:44:36;99647.56;;;9.06;62.44
71795;BME280;59641;45.188;5.712;2022-12-05T10:47:02;99643.25;;;9.05;62.39
71795;BME280;59641;45.188;5.712;2022-12-05T10:49:28;99647.75;;;9.04;62.07
71795;BME280;59641;45.188;5.712;2022-12-05T10:51:54;99645.06;;;9.04;62.54
71795;BME280;59641;45.188;5.712;2022-12-05T10:54:23;99636.22;;;9.04;62.73
71795;BME280;59641;45.188;5.712;2022-12-05T10:56:51;99628.81;;;9.06;62.34
71795;BME280;59641;45.188;5.712;2022-12-05T10:59:21;99632.53;;;9.05;62.50
71795;BME280;59641;45.188;5.712;2022-12-05T11:01:55;99630.69;;;9.05;62.49
71795;BME280;59641;45.188;5.712;2022-12-05T11:06:53;99630.25;;;9.08;62.39
71795;BME280;59641;45.188;5.712;2022-12-05T11:09:25;99632.75;;;9.10;62.27
71795;BME280;59641;45.188;5.712;2022-12-05T11:12:21;99620.81;;;9.12;62.60
71795;BME280;59641;45.188;5.712;2022-12-05T11:14:58;99614.03;;;9.16;62.52
71795;BME280;59641;45.188;5.712;2022-12-05T11:17:30;99602.06;;;9.19;62.32
71795;BME280;59641;45.188;5.712;2022-12-05T11:19:56;99597.31;;;9.21;61.92
71795;BME280;59641;45.188;5.712;2022-12-05T11:22:30;99595.88;;;9.25;62.16
71795;BME280;59641;45.188;5.712;2022-12-05T11:24:55;99593.63;;;9.29;62.36
71795;BME280;59641;45.188;5.712;2022-12-05T11:27:27;99594.03;;;9.32;62.23
71795;BME280;59641;45.188;5.712;2022-12-05T11:30:15;99599.59;;;9.37;62.06
71795;BME280;59641;45.188;5.712;2022-12-05T11:32:42;99592.81;;;9.42;62.16
71795;BME280;59641;45.188;5.712;2022-12-05T11:35:24;99594.25;;;9.44;62.01
71795;BME280;59641;45.188;5.712;2022-12-05T11:37:57;99592.81;;;9.48;61.74
71795;BME280;59641;45.188;5.712;2022-12-05T11:40:29;99601.47;;;9.50;61.89
71795;BME280;59641;45.188;5.712;2022-12-05T11:43:15;99589.50;;;9.53;62.16
71795;BME280;59641;45.188;5.712;2022-12-05T11:48:32;99568.91;;;9.60;61.89
71795;BME280;59641;45.188;5.712;2022-12-05T11:56:53;99570.94;;;9.65;61.68
71795;BME280;59641;45.188;5.712;2022-12-05T11:59:50;99566.19;;;9.67;61.71
71795;BME280;59641;45.188;5.712;2022-12-05T12:10:47;99558.56;;;9.77;62.11
71795;BME280;59641;45.188;5.712;2022-12-05T12:15:55;99557.69;;;9.83;62.01
71795;BME280;59641;45.188;5.712;2022-12-05T12:18:27;99551.94;;;9.86;61.59
71795;BME280;59641;45.188;5.712;2022-12-05T12:21:19;99556.06;;;9.89;61.58
71795;BME280;59641;45.188;5.712;2022-12-05T12:40:47;99541.34;;;9.98;60.36
71795;BME280;59641;45.188;5.712;2022-12-05T12:46:07;99550.00;;;10.00;60.37
71795;BME280;59641;45.188;5.712;2022-12-05T12:51:30;99550.63;;;10.02;60.19
71795;BME280;59641;45.188;5.712;2022-12-05T12:53:59;99547.53;;;10.05;60.63
71795;BME280;59641;45.188;5.712;2022-12-05T12:56:30;99554.53;;;10.06;60.90
71795;BME280;59641;45.188;5.712;2022-12-05T12:59:17;99541.97;;;10.07;61.26
71795;BME280;59641;45.188;5.712;2022-12-05T13:02:21;99550.41;;;10.10;61.22
71795;BME280;59641;45.188;5.712;2022-12-05T13:04:54;99552.06;;;10.11;61.05
71795;BME280;59641;45.188;5.712;2022-12-05T13:07:35;99549.16;;;10.13;60.99
71795;BME280;59641;45.188;5.712;2022-12-05T13:10:16;99549.16;;;10.13;61.08
71795;BME280;59641;45.188;5.712;2022-12-05T13:12:44;99546.47;;;10.13;61.13
71795;BME280;59641;45.188;5.712;2022-12-05T13:15:16;99544.38;;;10.15;61.24
71795;BME280;59641;45.188;5.712;2022-12-05T13:17:44;99541.94;;;10.13;61.15
71795;BME280;59641;45.188;5.712;2022-12-05T13:20:21;99544.63;;;10.13;61.26
71795;BME280;59641;45.188;5.712;2022-12-05T13:22:50;99537.19;;;10.15;61.02
71795;BME280;59641;45.188;5.712;2022-12-05T13:25:18;99543.38;;;10.16;61.10
71795;BME280;59641;45.188;5.712;2022-12-05T13:28:00;99534.50;;;10.15;61.27
71795;BME280;59641;45.188;5.712;2022-12-05T13:30:26;99536.16;;;10.16;61.29
71795;BME280;59641;45.188;5.712;2022-12-05T13:33:15;99536.75;;;10.18;61.35
71795;BME280;59641;45.188;5.712;2022-12-05T13:35:53;99527.66;;;10.19;61.36
71795;BME280;59641;45.188;5.712;2022-12-05T13:38:40;99528.50;;;10.20;61.14
71795;BME280;59641;45.188;5.712;2022-12-05T13:41:46;99532.22;;;10.19;61.08
71795;BME280;59641;45.188;5.712;2022-12-05T13:44:38;99522.31;;;10.19;61.23
71795;BME280;59641;45.188;5.712;2022-12-05T13:47:05;99521.28;;;10.20;61.27
71795;BME280;59641;45.188;5.712;2022-12-05T13:52:06;99519.22;;;10.22;61.35
71795;BME280;59641;45.188;5.712;2022-12-05T13:54:33;99511.16;;;10.22;61.25
71795;BME280;59641;45.188;5.712;2022-12-05T13:57:00;99518.97;;;10.24;61.10
71795;BME280;59641;45.188;5.712;2022-12-05T14:07:52;99518.16;;;10.30;61.24
71795;BME280;59641;45.188;5.712;2022-12-05T14:13:02;99518.38;;;10.29;61.21
71795;BME280;59641;45.188;5.712;2022-12-05T14:15:37;99517.56;;;10.28;61.19
71795;BME280;59641;45.188;5.712;2022-12-05T14:18:23;99515.69;;;10.29;60.99
71795;BME280;59641;45.188;5.712;2022-12-05T14:21:06;99520.25;;;10.28;60.97
71795;BME280;59641;45.188;5.712;2022-12-05T14:34:28;99521.06;;;10.22;60.99
71795;BME280;59641;45.188;5.712;2022-12-05T14:37:01;99516.53;;;10.22;61.02
71795;BME280;59641;45.188;5.712;2022-12-05T14:39:37;99522.72;;;10.23;60.75
71795;BME280;59641;45.188;5.712;2022-12-05T14:42:18;99527.03;;;10.24;61.19
71795;BME280;59641;45.188;5.712;2022-12-05T14:44:46;99529.72;;;10.24;61.29
71795;BME280;59641;45.188;5.712;2022-12-05T14:47:20;99524.97;;;10.26;60.80
71795;BME280;59641;45.188;5.712;2022-12-05T14:52:27;99527.66;;;10.19;61.03
71795;BME280;59641;45.188;5.712;2022-12-05T14:55:00;99533.03;;;10.19;60.98
71795;BME280;59641;45.188;5.712;2022-12-05T14:57:28;99535.94;;;10.18;61.05
71795;BME280;59641;45.188;5.712;2022-12-05T14:59:55;99528.09;;;10.16;61.21
71795;BME280;59641;45.188;5.712;2022-12-05T15:02:31;99534.28;;;10.17;61.13
71795;BME280;59641;45.188;5.712;2022-12-05T15:05:02;99529.16;;;10.15;61.07
71795;BME280;59641;45.188;5.712;2022-12-05T15:07:35;99534.50;;;10.15;61.08
71795;BME280;59641;45.188;5.712;2022-12-05T15:10:05;99539.88;;;10.15;61.10
71795;BME280;59641;45.188;5.712;2022-12-05T15:15:14;99538.22;;;10.14;61.13
71795;BME280;59641;45.188;5.712;2022-12-05T15:18:11;99537.41;;;10.14;61.13
71795;BME280;59641;45.188;5.712;2022-12-05T15:20:53;99539.88;;;10.15;61.35